Terminal Aerodrome Forecast
Issued by NWS

Home | Current Version | Previous Version | Text Only | Print | Product List | Glossary Off
Versions: 1 2 3 4 5 6 7 8 9 10 11 12 13 14 15

000
FTUS43 KOAX 211700 RRA
TAFCDR
TAF
KCDR 211742Z 2118/2218 14005KT P6SM SCT080
     FM220800 19015KT P6SM SKC=

USA.gov is the U.S. government's official web portal to all federal, state and local government web resources and services.